Sweet Home, Oregon
Current Conditions -  °F | °C
As of 9:35 PM on Saturday 25 Oct 2014 (Local Time) from KCVO Reporting Station
Broken Clouds Broken Clouds  
Wind Chill: 54°   Ceiling: 6000
Heat Index: 54°   Visibility: 8mi
Dew Point: 48°   Wind: 10mph
Humidity: 82%   Direction: 190°S
Pressure: 29.91"   Gusts: NA
Location:  44.4°N, 122.73°W
Report Text: KCVO 260435Z AUTO 19009KT 8SM BKN060 12/09 A2991 RMK AO1 P0002
Loading
Personal Weather Stations






























Interactive Weather Map
Tropical Storm Tracking
New forecast layout! Learn more

10-Day Weather Forecast

Advertisements
Track Severe Weather on mobile